Wetterdaten: Woche 15.03.21 - 21.03.21 (KW11)
Datum Zeit Temp. A. Feuchte A. Luftdruck Regen Wind Richtung Taupunkt Windchill Windben
15.03.2021 00:00 3,9 C 74 % 1010,7 hPa 0,0 l/m 6,7 km/h N -0,3 C 3,3 C 19,3 km/h
15.03.2021 01:00 3,8 C 74 % 1010,6 hPa 0,0 l/m 8,2 km/h N -0,4 C 2,2 C 22,1 km/h
15.03.2021 02:00 4,0 C 72 % 1010,3 hPa 0,0 l/m 9,0 km/h N -0,6 C 1,8 C 24,9 km/h
15.03.2021 03:00 3,8 C 73 % 1010,4 hPa 0,0 l/m 7,4 km/h N -0,7 C 2,8 C 18,5 km/h
15.03.2021 04:00 3,6 C 74 % 1010,3 hPa 0,0 l/m 4,9 km/h N -0,6 C 3,6 C 17,3 km/h
15.03.2021 05:00 3,9 C 74 % 1010,3 hPa 0,0 l/m 7,8 km/h N -0,3 C 2,7 C 19,7 km/h
15.03.2021 06:00 3,8 C 73 % 1010,4 hPa 0,0 l/m 5,6 km/h N -0,6 C 3,0 C 18,1 km/h
15.03.2021 07:00 4,4 C 71 % 1010,4 hPa 0,0 l/m 4,0 km/h N -0,4 C 4,4 C 18,1 km/h
15.03.2021 08:00 4,9 C 71 % 1010,3 hPa 0,0 l/m 2,7 km/h N 0,1 C 4,9 C 15,7 km/h
15.03.2021 09:00 6,0 C 69 % 1010,3 hPa 0,0 l/m 4,1 km/h N 0,6 C 6,0 C 19,7 km/h
15.03.2021 10:00 7,4 C 65 % 1009,7 hPa 0,0 l/m 6,4 km/h N 1,1 C 7,1 C 25,3 km/h
15.03.2021 11:00 7,9 C 62 % 1009,0 hPa 0,0 l/m 4,7 km/h N 1,0 C 7,9 C 22,5 km/h
15.03.2021 12:00 8,6 C 59 % 1008,5 hPa 0,0 l/m 5,7 km/h N 1,1 C 8,2 C 21,7 km/h
15.03.2021 13:00 9,0 C 55 % 1007,9 hPa 0,0 l/m 4,0 km/h N 0,4 C 9,0 C 18,5 km/h
15.03.2021 14:00 8,8 C 56 % 1007,7 hPa 0,0 l/m 4,3 km/h N 0,5 C 8,8 C 18,9 km/h
15.03.2021 15:00 8,8 C 56 % 1007,5 hPa 0,0 l/m 3,8 km/h N 0,4 C 8,8 C 17,3 km/h
15.03.2021 16:00 8,9 C 56 % 1007,4 hPa 0,0 l/m 2,7 km/h N 0,5 C 8,9 C 16,9 km/h
15.03.2021 17:00 7,8 C 60 % 1007,4 hPa 0,0 l/m 1,1 km/h N 0,5 C 7,8 C 6,9 km/h
15.03.2021 18:00 6,4 C 67 % 1007,9 hPa 0,0 l/m 0,2 km/h N 0,6 C 6,4 C 2,4 km/h
15.03.2021 19:00 5,8 C 71 % 1008,1 hPa 0,0 l/m 0,7 km/h N 0,9 C 5,8 C 6,4 km/h
15.03.2021 20:00 5,7 C 74 % 1008,4 hPa 0,0 l/m 2,2 km/h N 1,3 C 5,7 C 10,5 km/h
15.03.2021 21:00 4,9 C 77 % 1008,9 hPa 0,0 l/m 4,6 km/h N 1,2 C 4,2 C 18,1 km/h
15.03.2021 22:00 4,7 C 79 % 1009,5 hPa 0,0 l/m 9,1 km/h N 1,4 C 2,3 C 20,9 km/h
15.03.2021 23:00 4,9 C 79 % 1009,5 hPa 0,0 l/m 8,1 km/h N 1,6 C 3,4 C 21,3 km/h
16.03.2021 00:00 4,8 C 77 % 1009,4 hPa 0,0 l/m 9,9 km/h N 1,1 C 2,0 C 22,9 km/h
16.03.2021 01:00 4,8 C 75 % 1009,7 hPa 0,0 l/m 8,3 km/h N 0,8 C 3,1 C 20,9 km/h
16.03.2021 02:00 4,6 C 77 % 1009,7 hPa 0,0 l/m 10,1 km/h N 0,8 C 1,6 C 25,4 km/h
16.03.2021 03:00 4,3 C 79 % 1009,7 hPa 0,0 l/m 8,8 km/h N 1,0 C 2,2 C 23,8 km/h
16.03.2021 04:00 4,6 C 78 % 1010,3 hPa 0,0 l/m 9,6 km/h N 1,2 C 1,9 C 23,3 km/h
16.03.2021 05:00 4,4 C 79 % 1011,0 hPa 0,3 l/m 9,2 km/h N 1,0 C 2,0 C 22,1 km/h
16.03.2021 06:00 3,8 C 80 % 1011,5 hPa 0,3 l/m 10,1 km/h N 0,7 C 0,7 C 23,7 km/h
16.03.2021 07:00 4,3 C 79 % 1012,2 hPa 0,0 l/m 9,8 km/h N 0,9 C 1,4 C 25,3 km/h
16.03.2021 08:00 5,0 C 77 % 1012,7 hPa 0,0 l/m 11,9 km/h N 1,2 C 0,9 C 28,2 km/h
16.03.2021 09:00 5,6 C 75 % 1013,4 hPa 0,0 l/m 11,3 km/h N 1,5 C 1,8 C 27,8 km/h
16.03.2021 10:00 5,9 C 74 % 1013,5 hPa 0,0 l/m 10,7 km/h N 1,6 C 2,6 C 28,2 km/h
16.03.2021 11:00 6,8 C 67 % 1013,5 hPa 0,0 l/m 10,2 km/h N 1,0 C 4,0 C 30,2 km/h
16.03.2021 12:00 6,6 C 65 % 1013,8 hPa 0,0 l/m 10,6 km/h N 0,6 C 3,5 C 35,4 km/h
16.03.2021 13:00 6,6 C 64 % 1014,0 hPa 0,0 l/m 9,1 km/h N 0,3 C 4,4 C 30,2 km/h
16.03.2021 14:00 6,7 C 64 % 1014,2 hPa 0,0 l/m 10,1 km/h N 0,2 C 3,9 C 32,2 km/h
16.03.2021 15:00 6,2 C 62 % 1014,5 hPa 0,0 l/m 7,8 km/h N -0,7 C 4,9 C 29,4 km/h
16.03.2021 16:00 6,4 C 57 % 1015,0 hPa 0,0 l/m 10,4 km/h N -1,5 C 3,4 C 35,4 km/h
16.03.2021 17:00 5,1 C 67 % 1015,8 hPa 0,0 l/m 8,6 km/h N -0,6 C 3,4 C 28,2 km/h
16.03.2021 18:00 4,9 C 66 % 1016,3 hPa 0,0 l/m 5,4 km/h N -0,9 C 4,7 C 20,9 km/h
16.03.2021 19:00 4,9 C 65 % 1016,7 hPa 0,0 l/m 4,8 km/h N -1,1 C 4,4 C 22,9 km/h
16.03.2021 20:00 4,6 C 64 % 1016,8 hPa 0,0 l/m 5,1 km/h N -1,5 C 4,6 C 21,3 km/h
16.03.2021 21:00 4,5 C 64 % 1017,0 hPa 0,0 l/m 5,7 km/h N -1,7 C 4,4 C 20,5 km/h
16.03.2021 22:00 4,1 C 69 % 1016,9 hPa 0,0 l/m 7,4 km/h N -1,1 C 3,2 C 22,1 km/h
16.03.2021 23:00 3,8 C 72 % 1016,9 hPa 0,0 l/m 8,9 km/h N -0,8 C 1,7 C 23,3 km/h
17.03.2021 00:00 3,5 C 74 % 1016,9 hPa 0,0 l/m 6,8 km/h N -0,7 C 3,1 C 19,7 km/h
17.03.2021 01:00 3,5 C 75 % 1016,8 hPa 0,0 l/m 7,2 km/h N -0,6 C 2,5 C 17,7 km/h
17.03.2021 02:00 3,3 C 76 % 1016,5 hPa 0,0 l/m 8,1 km/h N -0,5 C 1,7 C 19,7 km/h
17.03.2021 03:00 3,1 C 77 % 1016,2 hPa 0,0 l/m 7,4 km/h N -0,6 C 2,2 C 16,9 km/h
17.03.2021 04:00 2,9 C 78 % 1016,0 hPa 0,0 l/m 7,6 km/h N -0,6 C 1,8 C 17,7 km/h
17.03.2021 05:00 2,8 C 78 % 1016,1 hPa 0,0 l/m 7,7 km/h N -0,7 C 1,6 C 18,5 km/h
17.03.2021 06:00 2,8 C 77 % 1016,4 hPa 0,0 l/m 7,7 km/h N -0,9 C 1,5 C 20,5 km/h
17.03.2021 07:00 3,0 C 77 % 1016,7 hPa 0,0 l/m 7,7 km/h N -0,7 C 1,8 C 17,3 km/h
17.03.2021 08:00 4,2 C 74 % 1016,8 hPa 0,0 l/m 8,2 km/h N -0,1 C 2,6 C 19,7 km/h
17.03.2021 09:00 5,0 C 70 % 1016,9 hPa 0,0 l/m 8,3 km/h N 0,0 C 3,4 C 22,9 km/h
17.03.2021 10:00 5,5 C 63 % 1016,8 hPa 0,0 l/m 9,9 km/h N -1,0 C 2,7 C 22,9 km/h
17.03.2021 11:00 6,2 C 57 % 1016,8 hPa 0,0 l/m 9,6 km/h N -1,8 C 3,7 C 28,1 km/h
17.03.2021 12:00 6,2 C 56 % 1016,6 hPa 0,0 l/m 9,9 km/h N -2,0 C 3,5 C 26,6 km/h
17.03.2021 13:00 6,0 C 56 % 1016,6 hPa 0,0 l/m 8,9 km/h N -2,2 C 4,0 C 23,3 km/h
17.03.2021 14:00 6,3 C 55 % 1016,5 hPa 0,0 l/m 7,6 km/h N -2,0 C 5,4 C 25,7 km/h
17.03.2021 15:00 6,6 C 56 % 1016,4 hPa 0,0 l/m 7,4 km/h N -1,6 C 5,8 C 25,8 km/h
17.03.2021 16:00 6,3 C 59 % 1016,4 hPa 0,0 l/m 8,4 km/h N -1,2 C 4,7 C 25,3 km/h
17.03.2021 17:00 6,1 C 60 % 1017,2 hPa 0,0 l/m 5,2 km/h N -1,2 C 6,1 C 19,3 km/h
17.03.2021 18:00 4,4 C 73 % 1018,2 hPa 0,3 l/m 5,8 km/h N -0,1 C 3,9 C 17,7 km/h
17.03.2021 19:00 3,4 C 79 % 1018,7 hPa 0,3 l/m 7,0 km/h N 0,1 C 2,8 C 16,5 km/h
17.03.2021 20:00 3,6 C 78 % 1019,0 hPa 0,0 l/m 5,8 km/h N 0,0 C 3,6 C 16,5 km/h
17.03.2021 21:00 3,4 C 78 % 1019,2 hPa 0,0 l/m 6,4 km/h N -0,1 C 3,0 C 16,5 km/h
17.03.2021 22:00 3,1 C 79 % 1019,4 hPa 0,0 l/m 4,7 km/h N -0,1 C 3,1 C 13,7 km/h
17.03.2021 23:00 3,0 C 79 % 1019,4 hPa 0,0 l/m 4,1 km/h N -0,3 C 3,0 C 13,7 km/h
18.03.2021 00:00 2,5 C 79 % 1019,5 hPa 0,0 l/m 4,6 km/h N -0,7 C 2,5 C 12,9 km/h
18.03.2021 01:00 1,9 C 79 % 1019,7 hPa 0,0 l/m 4,0 km/h N -1,3 C 1,9 C 13,7 km/h
18.03.2021 02:00 1,9 C 79 % 1019,5 hPa 0,0 l/m 3,7 km/h N -1,4 C 1,9 C 12,1 km/h
18.03.2021 03:00 1,8 C 78 % 1019,5 hPa 0,0 l/m 2,8 km/h N -1,7 C 1,8 C 8,9 km/h
18.03.2021 04:00 1,6 C 78 % 1019,7 hPa 0,0 l/m 3,8 km/h N -1,8 C 1,6 C 11,7 km/h
18.03.2021 05:00 1,3 C 78 % 1019,9 hPa 0,0 l/m 4,1 km/h N -2,1 C 1,3 C 11,3 km/h
18.03.2021 06:00 1,3 C 78 % 1020,0 hPa 0,0 l/m 5,1 km/h N -2,1 C 1,3 C 12,1 km/h
18.03.2021 07:00 1,8 C 78 % 1020,1 hPa 0,0 l/m 6,2 km/h N -1,6 C 1,7 C 16,1 km/h
18.03.2021 08:00 3,0 C 75 % 1020,0 hPa 0,0 l/m 7,0 km/h N -1,1 C 2,4 C 20,5 km/h
18.03.2021 09:00 3,2 C 74 % 1019,9 hPa 0,0 l/m 5,3 km/h N -1,0 C 3,2 C 18,5 km/h
18.03.2021 10:00 3,8 C 72 % 1019,6 hPa 0,0 l/m 6,2 km/h N -0,8 C 3,4 C 18,9 km/h
18.03.2021 11:00 4,9 C 68 % 1019,1 hPa 0,0 l/m 5,1 km/h N -0,6 C 4,9 C 21,3 km/h
18.03.2021 12:00 5,3 C 57 % 1018,7 hPa 0,0 l/m 5,3 km/h N -2,5 C 5,3 C 19,7 km/h
18.03.2021 13:00 5,8 C 51 % 1018,3 hPa 0,0 l/m 5,0 km/h N -3,6 C 5,8 C 20,9 km/h
18.03.2021 14:00 5,8 C 47 % 1017,8 hPa 0,0 l/m 4,3 km/h N -4,6 C 5,8 C 17,3 km/h
18.03.2021 15:00 5,5 C 51 % 1017,5 hPa 0,0 l/m 3,2 km/h N -3,9 C 5,5 C 18,1 km/h
18.03.2021 16:00 5,0 C 54 % 1017,1 hPa 0,0 l/m 1,7 km/h N -3,7 C 5,0 C 9,2 km/h
18.03.2021 17:00 5,1 C 51 % 1016,9 hPa 0,0 l/m 0,7 km/h N -4,3 C 5,1 C 7,2 km/h
18.03.2021 18:00 3,9 C 53 % 1017,0 hPa 0,0 l/m 0,1 km/h N -4,8 C 3,9 C 2,4 km/h
18.03.2021 19:00 2,5 C 62 % 1017,1 hPa 0,0 l/m 0,0 km/h N -4,1 C 2,5 C 1,2 km/h
18.03.2021 20:00 2,1 C 67 % 1017,2 hPa 0,0 l/m 0,4 km/h N -3,5 C 2,1 C 5,2 km/h
18.03.2021 21:00 1,8 C 73 % 1017,2 hPa 0,0 l/m 0,8 km/h N -2,4 C 1,8 C 7,2 km/h
18.03.2021 22:00 1,1 C 75 % 1017,2 hPa 0,0 l/m 0,1 km/h N -2,9 C 1,1 C 1,2 km/h
18.03.2021 23:00 0,2 C 77 % 1017,0 hPa 0,0 l/m 0,1 km/h N -3,5 C 0,2 C 1,6 km/h
19.03.2021 00:00 1,2 C 77 % 1016,5 hPa 0,0 l/m 1,4 km/h N -2,3 C 1,2 C 9,3 km/h
19.03.2021 01:00 0,9 C 77 % 1016,3 hPa 0,0 l/m 0,4 km/h N -2,7 C 0,9 C 6,0 km/h
19.03.2021 02:00 0,1 C 77 % 1016,1 hPa 0,0 l/m 0,0 km/h N -3,4 C 0,1 C 0,0 km/h
19.03.2021 03:00 -1,1 C 79 % 1016,1 hPa 0,0 l/m 0,0 km/h N -4,4 C -1,1 C 0,0 km/h
19.03.2021 04:00 -1,2 C 81 % 1016,1 hPa 0,0 l/m 0,0 km/h N -4,0 C -1,2 C 0,0 km/h
19.03.2021 05:00 -1,2 C 81 % 1016,1 hPa 0,0 l/m 0,0 km/h N -4,0 C -1,2 C 0,4 km/h
19.03.2021 06:00 -1,9 C 82 % 1016,3 hPa 0,0 l/m 0,0 km/h N -4,6 C -1,9 C 0,0 km/h
19.03.2021 07:00 -0,5 C 82 % 1016,6 hPa 0,0 l/m 0,3 km/h N -3,2 C -0,5 C 3,6 km/h
19.03.2021 08:00 1,9 C 80 % 1016,7 hPa 0,0 l/m 4,2 km/h N -1,2 C 1,9 C 14,1 km/h
19.03.2021 09:00 2,7 C 77 % 1016,9 hPa 0,0 l/m 4,3 km/h N -0,9 C 2,7 C 17,3 km/h
19.03.2021 10:00 3,3 C 75 % 1016,9 hPa 0,0 l/m 3,2 km/h N -0,7 C 3,3 C 14,1 km/h
19.03.2021 11:00 3,7 C 75 % 1016,7 hPa 0,0 l/m 4,3 km/h N -0,3 C 3,7 C 15,7 km/h
19.03.2021 12:00 2,9 C 78 % 1016,8 hPa 0,8 l/m 1,8 km/h N -0,6 C 2,9 C 8,8 km/h
19.03.2021 13:00 2,8 C 82 % 1016,3 hPa 0,3 l/m 1,0 km/h N 0,0 C 2,8 C 7,6 km/h
19.03.2021 14:00 3,1 C 81 % 1016,2 hPa 0,0 l/m 2,1 km/h N 0,2 C 3,1 C 12,1 km/h
19.03.2021 15:00 1,5 C 82 % 1017,0 hPa 0,0 l/m 0,9 km/h N -1,3 C 1,5 C 6,4 km/h
19.03.2021 16:00 1,1 C 82 % 1016,8 hPa 0,3 l/m 0,0 km/h N -1,6 C 1,1 C 0,0 km/h
19.03.2021 17:00 1,2 C 82 % 1017,2 hPa 0,5 l/m 0,0 km/h N -1,5 C 1,2 C 0,0 km/h
19.03.2021 18:00 0,5 C 82 % 1017,7 hPa 0,0 l/m 0,0 km/h N -2,2 C 0,5 C 0,8 km/h
19.03.2021 19:00 0,4 C 81 % 1018,2 hPa 0,0 l/m 0,0 km/h N -2,4 C 0,4 C 0,0 km/h
19.03.2021 20:00 0,7 C 81 % 1018,7 hPa 0,0 l/m 0,0 km/h N -2,2 C 0,7 C 0,8 km/h
19.03.2021 21:00 0,7 C 81 % 1019,2 hPa 0,3 l/m 0,0 km/h N -2,2 C 0,7 C 1,2 km/h
19.03.2021 22:00 0,4 C 81 % 1019,4 hPa 0,0 l/m 0,1 km/h N -2,4 C 0,4 C 2,4 km/h
19.03.2021 23:00 0,2 C 81 % 1019,8 hPa 0,0 l/m 0,3 km/h N -2,6 C 0,2 C 4,4 km/h
20.03.2021 00:00 -0,0 C 81 % 1020,0 hPa 0,0 l/m 0,6 km/h N -2,9 C -0,0 C 6,9 km/h
20.03.2021 01:00 -0,2 C 81 % 1020,3 hPa 0,0 l/m 0,1 km/h N -3,0 C -0,2 C 4,0 km/h
20.03.2021 02:00 -0,1 C 81 % 1020,4 hPa 0,0 l/m 0,3 km/h N -2,9 C -0,1 C 5,2 km/h
20.03.2021 03:00 -0,2 C 81 % 1020,6 hPa 0,0 l/m 0,2 km/h N -3,0 C -0,2 C 4,0 km/h
20.03.2021 04:00 -0,2 C 81 % 1021,0 hPa 0,0 l/m 0,1 km/h N -3,1 C -0,2 C 3,6 km/h
20.03.2021 05:00 -0,4 C 81 % 1021,3 hPa 0,0 l/m 0,0 km/h N -3,3 C -0,4 C 0,0 km/h
20.03.2021 06:00 -0,9 C 82 % 1021,9 hPa 0,0 l/m 0,1 km/h N -3,7 C -0,9 C 1,2 km/h
20.03.2021 07:00 -2,0 C 82 % 1023,0 hPa 0,0 l/m 1,7 km/h N -4,7 C -2,0 C 9,6 km/h
20.03.2021 08:00 -2,1 C 83 % 1024,1 hPa 0,0 l/m 2,5 km/h N -4,7 C -2,1 C 11,7 km/h
20.03.2021 09:00 -1,8 C 83 % 1024,8 hPa 0,0 l/m 1,6 km/h N -4,3 C -1,8 C 10,9 km/h
20.03.2021 10:00 -1,1 C 81 % 1025,1 hPa 0,5 l/m 2,2 km/h N -4,0 C -1,1 C 12,9 km/h
20.03.2021 11:00 -0,1 C 74 % 1025,1 hPa 1,3 l/m 3,9 km/h N -4,2 C -0,1 C 15,3 km/h
20.03.2021 12:00 0,7 C 67 % 1025,1 hPa 1,0 l/m 4,3 km/h N -4,7 C 0,7 C 19,7 km/h
20.03.2021 13:00 0,9 C 63 % 1024,9 hPa 0,0 l/m 4,2 km/h N -5,3 C 0,9 C 18,1 km/h
20.03.2021 14:00 1,2 C 58 % 1024,5 hPa 0,3 l/m 3,7 km/h N -6,2 C 1,0 C 18,9 km/h
20.03.2021 15:00 1,2 C 55 % 1024,4 hPa 0,3 l/m 4,2 km/h N -6,8 C 1,2 C 14,1 km/h
20.03.2021 16:00 0,6 C 54 % 1024,4 hPa 0,0 l/m 5,3 km/h N -7,6 C 0,2 C 18,5 km/h
20.03.2021 17:00 0,1 C 54 % 1024,6 hPa 0,0 l/m 1,1 km/h N -8,2 C 0,1 C 7,3 km/h
20.03.2021 18:00 -0,7 C 55 % 1024,8 hPa 0,0 l/m 0,0 km/h N -8,6 C -0,7 C 1,2 km/h
20.03.2021 19:00 -1,3 C 58 % 1025,1 hPa 0,0 l/m 0,0 km/h N -8,4 C -1,3 C 0,0 km/h
20.03.2021 20:00 -1,6 C 60 % 1025,4 hPa 0,0 l/m 0,0 km/h N -8,3 C -1,6 C 0,0 km/h
20.03.2021 21:00 -1,8 C 64 % 1025,5 hPa 0,0 l/m 0,0 km/h N -7,6 C -1,8 C 0,0 km/h
20.03.2021 22:00 -2,3 C 70 % 1025,4 hPa 0,0 l/m 0,0 km/h N -7,0 C -2,3 C 0,0 km/h
20.03.2021 23:00 -3,0 C 73 % 1025,1 hPa 0,0 l/m 0,0 km/h N -7,2 C -3,0 C 0,0 km/h
21.03.2021 00:00 -3,8 C 75 % 1024,8 hPa 0,0 l/m 0,0 km/h N -7,5 C -3,8 C 0,0 km/h
21.03.2021 01:00 -4,5 C 77 % 1024,5 hPa 0,0 l/m 0,0 km/h N -8,0 C -4,5 C 0,0 km/h
21.03.2021 02:00 -5,0 C 79 % 1023,8 hPa 0,0 l/m 0,0 km/h N -8,1 C -5,0 C 0,0 km/h
21.03.2021 03:00 -4,6 C 81 % 1023,2 hPa 0,0 l/m 0,0 km/h N -7,5 C -4,6 C 0,0 km/h
21.03.2021 04:00 -5,3 C 81 % 1022,5 hPa 0,0 l/m 0,0 km/h N -8,1 C -5,3 C 0,0 km/h
21.03.2021 05:00 -5,3 C 82 % 1021,6 hPa 0,0 l/m 0,0 km/h N -7,9 C -5,3 C 0,0 km/h
21.03.2021 06:00 -5,9 C 82 % 1021,0 hPa 0,0 l/m 0,0 km/h N -8,6 C -5,9 C 0,0 km/h
21.03.2021 07:00 -3,9 C 82 % 1020,5 hPa 0,0 l/m 0,4 km/h N -6,5 C -3,9 C 6,0 km/h
21.03.2021 08:00 -0,2 C 73 % 1019,6 hPa 0,0 l/m 3,3 km/h N -4,4 C -0,2 C 17,3 km/h
21.03.2021 09:00 0,8 C 67 % 1019,1 hPa 0,0 l/m 4,8 km/h N -4,8 C 0,8 C 20,5 km/h
21.03.2021 10:00 1,2 C 69 % 1018,6 hPa 0,0 l/m 3,6 km/h N -3,9 C 1,2 C 20,9 km/h
21.03.2021 11:00 1,2 C 73 % 1017,9 hPa 0,0 l/m 2,6 km/h N -3,2 C 1,2 C 18,1 km/h
21.03.2021 12:00 1,2 C 76 % 1017,1 hPa 0,0 l/m 2,3 km/h N -2,5 C 1,2 C 22,1 km/h
21.03.2021 13:00 1,5 C 72 % 1016,2 hPa 0,0 l/m 2,1 km/h N -3,0 C 1,5 C 19,7 km/h
21.03.2021 14:00 2,0 C 68 % 1015,3 hPa 0,3 l/m 3,9 km/h N -3,2 C 2,0 C 24,9 km/h
21.03.2021 15:00 2,3 C 68 % 1014,3 hPa 0,0 l/m 5,1 km/h N -2,9 C 2,2 C 25,8 km/h
21.03.2021 16:00 2,5 C 69 % 1013,5 hPa 0,0 l/m 9,3 km/h N -2,6 C -0,3 C 30,2 km/h
21.03.2021 17:00 1,8 C 74 % 1013,3 hPa 0,0 l/m 11,7 km/h N -2,3 C -2,6 C 30,6 km/h
21.03.2021 18:00 1,8 C 77 % 1013,4 hPa 0,0 l/m 11,7 km/h N -1,9 C -2,7 C 26,6 km/h
21.03.2021 19:00 1,8 C 79 % 1013,3 hPa 0,0 l/m 12,2 km/h N -1,5 C -3,1 C 30,2 km/h
21.03.2021 20:00 2,1 C 80 % 1013,1 hPa 0,0 l/m 11,5 km/h N -1,1 C -2,2 C 27,8 km/h
21.03.2021 21:00 2,3 C 80 % 1012,8 hPa 0,0 l/m 11,6 km/h N -0,8 C -2,0 C 29,0 km/h
21.03.2021 22:00 2,8 C 78 % 1012,9 hPa 0,3 l/m 10,3 km/h N -0,7 C -0,5 C 24,5 km/h
21.03.2021 23:00 2,9 C 79 % 1013,1 hPa 0,0 l/m 10,2 km/h N -0,3 C -0,4 C 22,9 km/h
Min-Datum _ 21.03.21 18.03.21 15.03.21 - 15.03.21 - 21.03.21 21.03.21 15.03.21
_ Min-Zeit 06:30 14:30 15:45 - 18:30 - 06:30 06:30 18:30
Minimum _ -6,1 C 46 % 1007,3 hPa - 0,0 km/h - -8,8 C -6,1 C 0,0 km/h
Max-Datum _ 15.03.21 20.03.21 20.03.21 20.03.21 21.03.21 - 16.03.21 15.03.21 16.03.21
_ Max-Zeit 13:45 08:30 22:00 11:15 18:30 - 10:15 13:45 16:00
Maximum _ 9,5 C 83 % 1025,6 hPa 1,3 l/m 14,1 km/h
N
- 2,0 C 9,5 C 40,2 km/h
N
Durchschnitt _ 2,6 C 72 % 1016,7 hPa #7,0 l/m 4,6 km/h N -2,1 C 1,9 C 15,0 km/h